sensor_id;sensor_type;location;lat;lon;timestamp;temperature;humidity
48728;DHT22;34527;45.618;5.130;2024-02-15T00:01:21;7.20;99.90
48728;DHT22;34527;45.618;5.130;2024-02-15T00:03:47;7.30;99.90
48728;DHT22;34527;45.618;5.130;2024-02-15T00:06:13;7.20;99.90
48728;DHT22;34527;45.618;5.130;2024-02-15T00:08:39;7.10;99.90
48728;DHT22;34527;45.618;5.130;2024-02-15T00:11:05;7.00;99.90
48728;DHT22;34527;45.618;5.130;2024-02-15T00:13:30;7.20;99.90
48728;DHT22;34527;45.618;5.130;2024-02-15T00:15:58;7.20;99.90
48728;DHT22;34527;45.618;5.130;2024-02-15T00:18:24;7.20;99.90
48728;DHT22;34527;45.618;5.130;2024-02-15T00:20:50;7.10;99.90
48728;DHT22;34527;45.618;5.130;2024-02-15T00:23:16;7.10;99.90
48728;DHT22;34527;45.618;5.130;2024-02-15T00:25:42;7.00;99.90
48728;DHT22;34527;45.618;5.130;2024-02-15T00:28:13;6.90;99.90
48728;DHT22;34527;45.618;5.130;2024-02-15T00:30:39;7.00;99.90
48728;DHT22;34527;45.618;5.130;2024-02-15T00:33:05;7.00;99.90
48728;DHT22;34527;45.618;5.130;2024-02-15T00:35:31;7.10;99.90
48728;DHT22;34527;45.618;5.130;2024-02-15T00:37:56;7.10;99.90
48728;DHT22;34527;45.618;5.130;2024-02-15T00:40:22;7.10;99.90
48728;DHT22;34527;45.618;5.130;2024-02-15T00:42:48;7.10;99.90
48728;DHT22;34527;45.618;5.130;2024-02-15T00:45:14;7.00;99.90
48728;DHT22;34527;45.618;5.130;2024-02-15T00:47:39;7.00;99.90
48728;DHT22;34527;45.618;5.130;2024-02-15T00:50:08;7.10;99.90
48728;DHT22;34527;45.618;5.130;2024-02-15T00:52:34;7.20;99.90
48728;DHT22;34527;45.618;5.130;2024-02-15T00:55:00;7.10;99.90
48728;DHT22;34527;45.618;5.130;2024-02-15T00:57:25;7.00;99.90
48728;DHT22;34527;45.618;5.130;2024-02-15T00:59:51;7.00;99.90
48728;DHT22;34527;45.618;5.130;2024-02-15T01:02:17;7.00;99.90
48728;DHT22;34527;45.618;5.130;2024-02-15T01:04:43;7.10;99.90
48728;DHT22;34527;45.618;5.130;2024-02-15T01:07:11;7.30;99.90
48728;DHT22;34527;45.618;5.130;2024-02-15T01:09:36;7.30;99.90
48728;DHT22;34527;45.618;5.130;2024-02-15T01:12:02;7.40;99.90
48728;DHT22;34527;45.618;5.130;2024-02-15T01:14:30;7.50;99.90
48728;DHT22;34527;45.618;5.130;2024-02-15T01:16:57;7.60;99.90
48728;DHT22;34527;45.618;5.130;2024-02-15T01:19:22;7.70;99.90
48728;DHT22;34527;45.618;5.130;2024-02-15T01:21:48;7.70;99.90
48728;DHT22;34527;45.618;5.130;2024-02-15T01:24:14;7.70;99.90
48728;DHT22;34527;45.618;5.130;2024-02-15T01:26:39;7.60;99.90
48728;DHT22;34527;45.618;5.130;2024-02-15T01:29:05;7.60;99.90
48728;DHT22;34527;45.618;5.130;2024-02-15T01:31:31;7.50;99.90
48728;DHT22;34527;45.618;5.130;2024-02-15T01:33:56;7.40;99.90
48728;DHT22;34527;45.618;5.130;2024-02-15T01:36:22;7.50;99.90
48728;DHT22;34527;45.618;5.130;2024-02-15T01:38:48;7.50;99.90
48728;DHT22;34527;45.618;5.130;2024-02-15T01:41:14;7.50;99.90
48728;DHT22;34527;45.618;5.130;2024-02-15T01:43:43;7.50;99.90
48728;DHT22;34527;45.618;5.130;2024-02-15T01:46:10;7.50;99.90
48728;DHT22;34527;45.618;5.130;2024-02-15T01:48:37;7.50;99.90
48728;DHT22;34527;45.618;5.130;2024-02-15T01:51:07;7.60;99.90
48728;DHT22;34527;45.618;5.130;2024-02-15T01:53:32;7.70;99.90
48728;DHT22;34527;45.618;5.130;2024-02-15T01:55:59;7.70;99.90
48728;DHT22;34527;45.618;5.130;2024-02-15T01:58:29;7.80;99.90
48728;DHT22;34527;45.618;5.130;2024-02-15T02:00:58;7.90;99.90
48728;DHT22;34527;45.618;5.130;2024-02-15T02:03:25;7.90;99.90
48728;DHT22;34527;45.618;5.130;2024-02-15T02:05:50;8.00;99.90
48728;DHT22;34527;45.618;5.130;2024-02-15T02:08:16;8.20;99.90
48728;DHT22;34527;45.618;5.130;2024-02-15T02:10:42;8.20;99.90
48728;DHT22;34527;45.618;5.130;2024-02-15T02:13:09;8.20;99.90
48728;DHT22;34527;45.618;5.130;2024-02-15T02:15:35;8.10;99.90
48728;DHT22;34527;45.618;5.130;2024-02-15T02:18:04;8.10;99.90
48728;DHT22;34527;45.618;5.130;2024-02-15T02:20:37;8.00;99.90
48728;DHT22;34527;45.618;5.130;2024-02-15T02:23:09;8.10;99.90
48728;DHT22;34527;45.618;5.130;2024-02-15T02:25:37;7.90;99.90
48728;DHT22;34527;45.618;5.130;2024-02-15T02:28:04;7.80;99.90
48728;DHT22;34527;45.618;5.130;2024-02-15T02:30:30;7.70;99.90
48728;DHT22;34527;45.618;5.130;2024-02-15T02:32:56;7.70;99.90
48728;DHT22;34527;45.618;5.130;2024-02-15T02:35:25;7.70;99.90
48728;DHT22;34527;45.618;5.130;2024-02-15T02:37:52;7.80;99.90
48728;DHT22;34527;45.618;5.130;2024-02-15T02:40:20;7.80;99.90
48728;DHT22;34527;45.618;5.130;2024-02-15T02:42:51;7.80;99.90
48728;DHT22;34527;45.618;5.130;2024-02-15T02:45:17;7.90;99.90
48728;DHT22;34527;45.618;5.130;2024-02-15T02:47:48;7.90;99.90
48728;DHT22;34527;45.618;5.130;2024-02-15T02:50:14;7.90;99.90
48728;DHT22;34527;45.618;5.130;2024-02-15T02:52:40;7.90;99.90
48728;DHT22;34527;45.618;5.130;2024-02-15T02:55:06;8.00;99.90
48728;DHT22;34527;45.618;5.130;2024-02-15T02:57:35;7.90;99.90
48728;DHT22;34527;45.618;5.130;2024-02-15T03:00:07;8.00;99.90
48728;DHT22;34527;45.618;5.130;2024-02-15T03:02:36;7.90;99.90
48728;DHT22;34527;45.618;5.130;2024-02-15T03:05:05;7.90;99.90
48728;DHT22;34527;45.618;5.130;2024-02-15T03:07:35;8.10;99.90
48728;DHT22;34527;45.618;5.130;2024-02-15T03:10:05;8.10;99.90
48728;DHT22;34527;45.618;5.130;2024-02-15T03:12:36;8.20;99.90
48728;DHT22;34527;45.618;5.130;2024-02-15T03:15:03;8.20;99.90
48728;DHT22;34527;45.618;5.130;2024-02-15T03:17:29;8.30;99.90
48728;DHT22;34527;45.618;5.130;2024-02-15T03:19:59;8.30;99.90
48728;DHT22;34527;45.618;5.130;2024-02-15T03:22:27;8.30;99.90
48728;DHT22;34527;45.618;5.130;2024-02-15T03:24:54;8.30;99.90
48728;DHT22;34527;45.618;5.130;2024-02-15T03:27:20;8.30;99.90
48728;DHT22;34527;45.618;5.130;2024-02-15T03:29:48;8.40;99.90
48728;DHT22;34527;45.618;5.130;2024-02-15T03:32:14;8.30;99.90
48728;DHT22;34527;45.618;5.130;2024-02-15T03:34:39;8.40;99.90
48728;DHT22;34527;45.618;5.130;2024-02-15T03:37:05;8.50;99.90
48728;DHT22;34527;45.618;5.130;2024-02-15T03:39:31;8.50;99.90
48728;DHT22;34527;45.618;5.130;2024-02-15T03:41:58;8.60;99.90
48728;DHT22;34527;45.618;5.130;2024-02-15T03:44:24;8.60;99.90
48728;DHT22;34527;45.618;5.130;2024-02-15T03:46:51;8.60;99.90
48728;DHT22;34527;45.618;5.130;2024-02-15T03:49:20;8.60;99.90
48728;DHT22;34527;45.618;5.130;2024-02-15T03:51:47;8.70;99.90
48728;DHT22;34527;45.618;5.130;2024-02-15T03:54:13;8.70;99.90
48728;DHT22;34527;45.618;5.130;2024-02-15T03:56:49;8.80;99.90
48728;DHT22;34527;45.618;5.130;2024-02-15T03:59:21;8.80;99.90
48728;DHT22;34527;45.618;5.130;2024-02-15T04:01:55;8.80;99.90
48728;DHT22;34527;45.618;5.130;2024-02-15T04:04:21;8.90;99.90
48728;DHT22;34527;45.618;5.130;2024-02-15T04:06:50;9.00;99.90
48728;DHT22;34527;45.618;5.130;2024-02-15T04:09:17;9.00;99.90
48728;DHT22;34527;45.618;5.130;2024-02-15T04:11:47;9.00;99.90
48728;DHT22;34527;45.618;5.130;2024-02-15T04:14:16;9.00;99.90
48728;DHT22;34527;45.618;5.130;2024-02-15T04:16:43;9.00;99.90
48728;DHT22;34527;45.618;5.130;2024-02-15T04:19:12;9.00;99.90
48728;DHT22;34527;45.618;5.130;2024-02-15T04:21:38;9.00;99.90
48728;DHT22;34527;45.618;5.130;2024-02-15T04:24:05;9.00;99.90
48728;DHT22;34527;45.618;5.130;2024-02-15T04:26:31;9.10;99.90
48728;DHT22;34527;45.618;5.130;2024-02-15T04:28:58;9.00;99.90
48728;DHT22;34527;45.618;5.130;2024-02-15T04:31:24;9.00;99.90
48728;DHT22;34527;45.618;5.130;2024-02-15T04:33:55;9.10;99.90
48728;DHT22;34527;45.618;5.130;2024-02-15T04:36:22;9.00;99.90
48728;DHT22;34527;45.618;5.130;2024-02-15T04:38:51;9.00;99.90
48728;DHT22;34527;45.618;5.130;2024-02-15T04:41:18;8.90;99.90
48728;DHT22;34527;45.618;5.130;2024-02-15T04:43:52;8.90;99.90
48728;DHT22;34527;45.618;5.130;2024-02-15T04:46:18;8.90;99.90
48728;DHT22;34527;45.618;5.130;2024-02-15T04:48:47;9.00;99.90
48728;DHT22;34527;45.618;5.130;2024-02-15T04:51:15;9.00;99.90
48728;DHT22;34527;45.618;5.130;2024-02-15T04:53:42;9.00;99.90
48728;DHT22;34527;45.618;5.130;2024-02-15T04:56:07;8.90;99.90
48728;DHT22;34527;45.618;5.130;2024-02-15T04:58:39;8.90;99.90
48728;DHT22;34527;45.618;5.130;2024-02-15T05:01:12;8.90;99.90
48728;DHT22;34527;45.618;5.130;2024-02-15T05:03:38;8.80;99.90
48728;DHT22;34527;45.618;5.130;2024-02-15T05:06:03;8.80;99.90
48728;DHT22;34527;45.618;5.130;2024-02-15T05:08:34;8.90;99.90
48728;DHT22;34527;45.618;5.130;2024-02-15T05:11:08;8.90;99.90
48728;DHT22;34527;45.618;5.130;2024-02-15T05:13:40;8.80;99.90
48728;DHT22;34527;45.618;5.130;2024-02-15T05:16:06;8.80;99.90
48728;DHT22;34527;45.618;5.130;2024-02-15T05:18:31;8.80;99.90
48728;DHT22;34527;45.618;5.130;2024-02-15T05:20:57;8.90;99.90
48728;DHT22;34527;45.618;5.130;2024-02-15T05:23:23;9.00;99.90
48728;DHT22;34527;45.618;5.130;2024-02-15T05:25:49;9.00;99.90
48728;DHT22;34527;45.618;5.130;2024-02-15T05:28:14;9.10;99.90
48728;DHT22;34527;45.618;5.130;2024-02-15T05:30:40;9.10;99.90
48728;DHT22;34527;45.618;5.130;2024-02-15T05:33:05;9.20;99.90
48728;DHT22;34527;45.618;5.130;2024-02-15T05:35:35;9.20;99.90
48728;DHT22;34527;45.618;5.130;2024-02-15T05:38:01;9.20;99.90
48728;DHT22;34527;45.618;5.130;2024-02-15T05:40:29;9.30;99.90
48728;DHT22;34527;45.618;5.130;2024-02-15T05:42:56;9.30;99.90
48728;DHT22;34527;45.618;5.130;2024-02-15T05:47:51;9.40;99.90
48728;DHT22;34527;45.618;5.130;2024-02-15T05:50:17;9.50;99.90
48728;DHT22;34527;45.618;5.130;2024-02-15T05:52:49;9.60;99.90
48728;DHT22;34527;45.618;5.130;2024-02-15T05:55:16;9.60;99.90
48728;DHT22;34527;45.618;5.130;2024-02-15T05:57:45;9.60;99.90
48728;DHT22;34527;45.618;5.130;2024-02-15T06:00:11;9.70;99.90
48728;DHT22;34527;45.618;5.130;2024-02-15T06:02:37;9.80;99.90
48728;DHT22;34527;45.618;5.130;2024-02-15T06:05:04;9.80;99.90
48728;DHT22;34527;45.618;5.130;2024-02-15T06:07:30;9.90;99.90
48728;DHT22;34527;45.618;5.130;2024-02-15T06:09:59;9.90;99.90
48728;DHT22;34527;45.618;5.130;2024-02-15T06:12:29;9.80;99.90
48728;DHT22;34527;45.618;5.130;2024-02-15T06:14:54;9.80;99.90
48728;DHT22;34527;45.618;5.130;2024-02-15T06:17:20;9.80;99.90
48728;DHT22;34527;45.618;5.130;2024-02-15T06:19:46;9.80;99.90
48728;DHT22;34527;45.618;5.130;2024-02-15T06:22:11;9.70;99.90
48728;DHT22;34527;45.618;5.130;2024-02-15T06:24:38;9.60;99.90
48728;DHT22;34527;45.618;5.130;2024-02-15T06:27:04;9.60;99.90
48728;DHT22;34527;45.618;5.130;2024-02-15T06:29:29;9.60;99.90
48728;DHT22;34527;45.618;5.130;2024-02-15T06:32:13;9.50;99.90
48728;DHT22;34527;45.618;5.130;2024-02-15T06:34:57;9.50;99.90
48728;DHT22;34527;45.618;5.130;2024-02-15T06:37:41;9.60;99.90
48728;DHT22;34527;45.618;5.130;2024-02-15T06:40:25;9.50;99.90
48728;DHT22;34527;45.618;5.130;2024-02-15T06:42:51;9.40;99.90
48728;DHT22;34527;45.618;5.130;2024-02-15T06:45:17;9.40;99.90
48728;DHT22;34527;45.618;5.130;2024-02-15T06:47:43;9.30;99.90
48728;DHT22;34527;45.618;5.130;2024-02-15T06:50:13;9.30;99.90
48728;DHT22;34527;45.618;5.130;2024-02-15T06:52:40;9.20;99.90
48728;DHT22;34527;45.618;5.130;2024-02-15T06:55:07;9.30;99.90
48728;DHT22;34527;45.618;5.130;2024-02-15T06:57:34;9.20;99.90
48728;DHT22;34527;45.618;5.130;2024-02-15T07:00:05;9.20;99.90
48728;DHT22;34527;45.618;5.130;2024-02-15T07:02:33;9.20;99.90
48728;DHT22;34527;45.618;5.130;2024-02-15T07:04:59;9.30;99.90
48728;DHT22;34527;45.618;5.130;2024-02-15T07:07:24;9.20;99.90
48728;DHT22;34527;45.618;5.130;2024-02-15T07:09:51;9.30;99.90
48728;DHT22;34527;45.618;5.130;2024-02-15T07:12:17;9.40;99.90
48728;DHT22;34527;45.618;5.130;2024-02-15T07:14:45;9.40;99.90
48728;DHT22;34527;45.618;5.130;2024-02-15T07:17:10;9.50;99.90
48728;DHT22;34527;45.618;5.130;2024-02-15T07:19:36;9.50;99.90
48728;DHT22;34527;45.618;5.130;2024-02-15T07:22:02;9.50;99.90
48728;DHT22;34527;45.618;5.130;2024-02-15T07:24:28;9.40;99.90
48728;DHT22;34527;45.618;5.130;2024-02-15T07:26:53;9.50;99.90
48728;DHT22;34527;45.618;5.130;2024-02-15T07:29:21;9.50;99.90
48728;DHT22;34527;45.618;5.130;2024-02-15T07:31:49;9.40;99.90
48728;DHT22;34527;45.618;5.130;2024-02-15T07:34:15;9.50;99.90
48728;DHT22;34527;45.618;5.130;2024-02-15T07:36:42;9.40;99.90
48728;DHT22;34527;45.618;5.130;2024-02-15T07:39:08;9.40;99.90
48728;DHT22;34527;45.618;5.130;2024-02-15T07:41:38;9.40;99.90
48728;DHT22;34527;45.618;5.130;2024-02-15T07:44:04;9.80;99.90
48728;DHT22;34527;45.618;5.130;2024-02-15T07:46:30;9.80;99.90
48728;DHT22;34527;45.618;5.130;2024-02-15T07:48:55;9.80;99.90
48728;DHT22;34527;45.618;5.130;2024-02-15T07:51:22;9.90;99.90
48728;DHT22;34527;45.618;5.130;2024-02-15T07:53:49;9.90;99.90
48728;DHT22;34527;45.618;5.130;2024-02-15T07:56:16;10.00;99.90
48728;DHT22;34527;45.618;5.130;2024-02-15T07:58:43;10.10;99.90
48728;DHT22;34527;45.618;5.130;2024-02-15T08:01:13;10.10;99.90
48728;DHT22;34527;45.618;5.130;2024-02-15T08:03:39;10.20;99.90
48728;DHT22;34527;45.618;5.130;2024-02-15T08:06:10;10.30;99.90
48728;DHT22;34527;45.618;5.130;2024-02-15T08:08:39;10.40;99.90
48728;DHT22;34527;45.618;5.130;2024-02-15T08:11:06;10.60;99.90
48728;DHT22;34527;45.618;5.130;2024-02-15T08:13:40;10.70;99.90
48728;DHT22;34527;45.618;5.130;2024-02-15T08:16:07;10.90;99.90
48728;DHT22;34527;45.618;5.130;2024-02-15T08:18:33;10.90;99.90
48728;DHT22;34527;45.618;5.130;2024-02-15T08:21:00;11.00;99.90
48728;DHT22;34527;45.618;5.130;2024-02-15T08:23:26;11.10;99.90
48728;DHT22;34527;45.618;5.130;2024-02-15T08:25:52;11.20;99.90
48728;DHT22;34527;45.618;5.130;2024-02-15T08:28:19;11.30;99.90
48728;DHT22;34527;45.618;5.130;2024-02-15T08:30:46;11.40;99.90
48728;DHT22;34527;45.618;5.130;2024-02-15T08:33:12;11.50;99.90
48728;DHT22;34527;45.618;5.130;2024-02-15T08:35:38;11.60;99.90
48728;DHT22;34527;45.618;5.130;2024-02-15T08:38:06;11.80;99.90
48728;DHT22;34527;45.618;5.130;2024-02-15T08:40:31;12.00;99.90
48728;DHT22;34527;45.618;5.130;2024-02-15T08:42:57;12.10;99.90
48728;DHT22;34527;45.618;5.130;2024-02-15T08:45:23;12.20;99.90
48728;DHT22;34527;45.618;5.130;2024-02-15T08:47:48;12.30;99.90
48728;DHT22;34527;45.618;5.130;2024-02-15T08:50:18;12.40;99.90
48728;DHT22;34527;45.618;5.130;2024-02-15T08:52:44;12.50;99.90
48728;DHT22;34527;45.618;5.130;2024-02-15T08:55:11;12.60;99.90
48728;DHT22;34527;45.618;5.130;2024-02-15T08:57:39;12.70;99.90
48728;DHT22;34527;45.618;5.130;2024-02-15T09:00:07;12.70;99.90
48728;DHT22;34527;45.618;5.130;2024-02-15T09:02:48;12.70;99.90
48728;DHT22;34527;45.618;5.130;2024-02-15T09:05:18;12.60;99.90
48728;DHT22;34527;45.618;5.130;2024-02-15T09:07:45;12.60;99.90
48728;DHT22;34527;45.618;5.130;2024-02-15T09:10:16;12.60;99.90
48728;DHT22;34527;45.618;5.130;2024-02-15T09:12:43;12.60;99.90
48728;DHT22;34527;45.618;5.130;2024-02-15T09:15:12;12.60;99.90
48728;DHT22;34527;45.618;5.130;2024-02-15T09:17:38;12.60;99.90
48728;DHT22;34527;45.618;5.130;2024-02-15T09:20:08;12.70;99.90
48728;DHT22;34527;45.618;5.130;2024-02-15T09:22:58;12.70;99.90
48728;DHT22;34527;45.618;5.130;2024-02-15T09:25:24;12.70;99.90
48728;DHT22;34527;45.618;5.130;2024-02-15T09:27:51;12.80;99.90
48728;DHT22;34527;45.618;5.130;2024-02-15T09:30:17;12.70;99.90
48728;DHT22;34527;45.618;5.130;2024-02-15T09:32:44;12.70;99.90
48728;DHT22;34527;45.618;5.130;2024-02-15T09:35:10;12.80;99.90
48728;DHT22;34527;45.618;5.130;2024-02-15T09:37:47;12.80;99.90
48728;DHT22;34527;45.618;5.130;2024-02-15T09:40:18;12.80;99.90
48728;DHT22;34527;45.618;5.130;2024-02-15T09:42:45;12.80;99.90
48728;DHT22;34527;45.618;5.130;2024-02-15T09:45:14;12.80;99.90
48728;DHT22;34527;45.618;5.130;2024-02-15T09:47:41;12.80;99.90
48728;DHT22;34527;45.618;5.130;2024-02-15T09:50:08;12.80;99.90
48728;DHT22;34527;45.618;5.130;2024-02-15T09:52:34;12.80;99.90
48728;DHT22;34527;45.618;5.130;2024-02-15T09:55:03;12.80;99.90
48728;DHT22;34527;45.618;5.130;2024-02-15T09:57:30;12.90;99.90
48728;DHT22;34527;45.618;5.130;2024-02-15T09:59:59;12.90;99.90
48728;DHT22;34527;45.618;5.130;2024-02-15T10:02:26;13.00;99.90
48728;DHT22;34527;45.618;5.130;2024-02-15T10:04:53;13.00;99.90
48728;DHT22;34527;45.618;5.130;2024-02-15T10:07:25;13.00;99.90
48728;DHT22;34527;45.618;5.130;2024-02-15T10:09:52;13.10;99.90
48728;DHT22;34527;45.618;5.130;2024-02-15T10:12:18;13.10;99.90
48728;DHT22;34527;45.618;5.130;2024-02-15T10:14:50;13.30;99.90
48728;DHT22;34527;45.618;5.130;2024-02-15T10:17:18;13.50;99.90
48728;DHT22;34527;45.618;5.130;2024-02-15T10:19:43;13.60;99.90
48728;DHT22;34527;45.618;5.130;2024-02-15T10:22:10;13.70;99.90
48728;DHT22;34527;45.618;5.130;2024-02-15T10:24:39;13.80;99.90
48728;DHT22;34527;45.618;5.130;2024-02-15T10:27:05;13.80;99.90
48728;DHT22;34527;45.618;5.130;2024-02-15T10:29:32;13.80;99.90
48728;DHT22;34527;45.618;5.130;2024-02-15T10:32:00;13.80;99.90
48728;DHT22;34527;45.618;5.130;2024-02-15T10:34:26;13.80;99.90
48728;DHT22;34527;45.618;5.130;2024-02-15T10:37:12;13.80;99.90
48728;DHT22;34527;45.618;5.130;2024-02-15T10:39:38;13.90;99.90
48728;DHT22;34527;45.618;5.130;2024-02-15T10:42:06;13.80;99.90
48728;DHT22;34527;45.618;5.130;2024-02-15T10:44:32;13.80;99.90
48728;DHT22;34527;45.618;5.130;2024-02-15T10:47:02;13.80;99.90
48728;DHT22;34527;45.618;5.130;2024-02-15T10:49:32;13.70;99.90
48728;DHT22;34527;45.618;5.130;2024-02-15T10:51:59;13.70;99.90
48728;DHT22;34527;45.618;5.130;2024-02-15T10:54:47;13.70;99.90
48728;DHT22;34527;45.618;5.130;2024-02-15T10:57:22;13.70;99.90
48728;DHT22;34527;45.618;5.130;2024-02-15T10:59:56;13.60;99.90
48728;DHT22;34527;45.618;5.130;2024-02-15T11:02:28;13.60;99.90
48728;DHT22;34527;45.618;5.130;2024-02-15T11:05:07;13.70;99.90
48728;DHT22;34527;45.618;5.130;2024-02-15T11:07:36;13.70;99.90
48728;DHT22;34527;45.618;5.130;2024-02-15T11:10:06;13.70;99.90
48728;DHT22;34527;45.618;5.130;2024-02-15T11:12:34;13.70;99.90
48728;DHT22;34527;45.618;5.130;2024-02-15T11:15:00;13.80;99.90
48728;DHT22;34527;45.618;5.130;2024-02-15T11:20:09;14.00;99.90
48728;DHT22;34527;45.618;5.130;2024-02-15T11:22:36;14.10;99.90
48728;DHT22;34527;45.618;5.130;2024-02-15T11:25:03;14.20;99.90
48728;DHT22;34527;45.618;5.130;2024-02-15T11:27:35;14.20;99.90
48728;DHT22;34527;45.618;5.130;2024-02-15T11:30:03;14.20;99.90
48728;DHT22;34527;45.618;5.130;2024-02-15T11:32:41;14.20;99.90
48728;DHT22;34527;45.618;5.130;2024-02-15T11:35:18;14.40;99.90
48728;DHT22;34527;45.618;5.130;2024-02-15T11:40:25;14.40;99.90
48728;DHT22;34527;45.618;5.130;2024-02-15T11:42:59;14.30;99.90
48728;DHT22;34527;45.618;5.130;2024-02-15T11:45:26;14.30;99.90
48728;DHT22;34527;45.618;5.130;2024-02-15T11:47:58;14.40;99.90
48728;DHT22;34527;45.618;5.130;2024-02-15T11:50:24;14.50;99.90
48728;DHT22;34527;45.618;5.130;2024-02-15T11:52:51;14.60;99.90
48728;DHT22;34527;45.618;5.130;2024-02-15T11:55:21;14.60;99.90
48728;DHT22;34527;45.618;5.130;2024-02-15T11:57:57;14.70;99.90
48728;DHT22;34527;45.618;5.130;2024-02-15T12:00:35;14.80;99.90
48728;DHT22;34527;45.618;5.130;2024-02-15T12:03:20;15.00;99.90
48728;DHT22;34527;45.618;5.130;2024-02-15T12:06:04;15.10;99.90
48728;DHT22;34527;45.618;5.130;2024-02-15T12:08:50;15.10;99.90
48728;DHT22;34527;45.618;5.130;2024-02-15T12:11:35;15.20;99.90
48728;DHT22;34527;45.618;5.130;2024-02-15T12:14:20;15.20;99.90
48728;DHT22;34527;45.618;5.130;2024-02-15T12:17:05;15.30;99.90
48728;DHT22;34527;45.618;5.130;2024-02-15T12:19:51;15.40;99.90
48728;DHT22;34527;45.618;5.130;2024-02-15T12:22:19;15.30;99.90
48728;DHT22;34527;45.618;5.130;2024-02-15T12:24:53;15.30;99.90
48728;DHT22;34527;45.618;5.130;2024-02-15T12:27:19;15.20;99.90
48728;DHT22;34527;45.618;5.130;2024-02-15T12:29:52;15.30;99.90
48728;DHT22;34527;45.618;5.130;2024-02-15T12:32:25;15.30;99.90
48728;DHT22;34527;45.618;5.130;2024-02-15T12:34:52;15.20;99.90
48728;DHT22;34527;45.618;5.130;2024-02-15T12:37:22;15.30;99.90
48728;DHT22;34527;45.618;5.130;2024-02-15T12:39:49;15.30;99.90
48728;DHT22;34527;45.618;5.130;2024-02-15T12:42:16;15.40;99.90
48728;DHT22;34527;45.618;5.130;2024-02-15T12:44:47;15.50;99.90
48728;DHT22;34527;45.618;5.130;2024-02-15T12:47:24;15.60;99.90
48728;DHT22;34527;45.618;5.130;2024-02-15T12:49:50;15.90;99.90
48728;DHT22;34527;45.618;5.130;2024-02-15T12:52:38;16.10;99.90
48728;DHT22;34527;45.618;5.130;2024-02-15T12:55:17;16.20;99.90
48728;DHT22;34527;45.618;5.130;2024-02-15T12:57:47;16.30;99.90
48728;DHT22;34527;45.618;5.130;2024-02-15T13:00:18;16.30;99.90
48728;DHT22;34527;45.618;5.130;2024-02-15T13:02:48;16.20;99.90
48728;DHT22;34527;45.618;5.130;2024-02-15T13:05:17;16.30;99.90
48728;DHT22;34527;45.618;5.130;2024-02-15T13:07:50;16.20;99.90
48728;DHT22;34527;45.618;5.130;2024-02-15T13:10:16;15.90;99.90
48728;DHT22;34527;45.618;5.130;2024-02-15T13:12:42;15.80;99.90
48728;DHT22;34527;45.618;5.130;2024-02-15T13:15:11;15.80;99.90
48728;DHT22;34527;45.618;5.130;2024-02-15T13:17:40;15.80;99.90
48728;DHT22;34527;45.618;5.130;2024-02-15T13:20:06;15.80;99.90
48728;DHT22;34527;45.618;5.130;2024-02-15T13:22:37;15.90;99.90
48728;DHT22;34527;45.618;5.130;2024-02-15T13:25:05;15.90;99.90
48728;DHT22;34527;45.618;5.130;2024-02-15T13:27:33;15.90;99.90
48728;DHT22;34527;45.618;5.130;2024-02-15T13:29:58;15.70;99.90
48728;DHT22;34527;45.618;5.130;2024-02-15T13:32:24;15.70;99.90
48728;DHT22;34527;45.618;5.130;2024-02-15T13:34:50;15.70;99.90
48728;DHT22;34527;45.618;5.130;2024-02-15T13:37:18;15.80;99.90
48728;DHT22;34527;45.618;5.130;2024-02-15T13:39:49;15.70;99.90
48728;DHT22;34527;45.618;5.130;2024-02-15T13:42:15;15.70;99.90
48728;DHT22;34527;45.618;5.130;2024-02-15T13:44:45;15.70;99.90
48728;DHT22;34527;45.618;5.130;2024-02-15T13:47:11;15.70;99.90
48728;DHT22;34527;45.618;5.130;2024-02-15T13:49:38;15.70;99.90
48728;DHT22;34527;45.618;5.130;2024-02-15T13:52:05;15.70;99.90
48728;DHT22;34527;45.618;5.130;2024-02-15T13:54:31;15.70;99.90
48728;DHT22;34527;45.618;5.130;2024-02-15T13:56:58;15.70;99.90
48728;DHT22;34527;45.618;5.130;2024-02-15T13:59:26;15.70;99.90
48728;DHT22;34527;45.618;5.130;2024-02-15T14:01:52;15.70;99.90
48728;DHT22;34527;45.618;5.130;2024-02-15T14:04:18;15.70;99.90
48728;DHT22;34527;45.618;5.130;2024-02-15T14:06:44;15.70;99.90
48728;DHT22;34527;45.618;5.130;2024-02-15T14:09:11;15.70;99.90
48728;DHT22;34527;45.618;5.130;2024-02-15T14:11:39;15.70;99.90
48728;DHT22;34527;45.618;5.130;2024-02-15T14:14:06;15.80;99.90
48728;DHT22;34527;45.618;5.130;2024-02-15T14:16:32;15.70;99.90
48728;DHT22;34527;45.618;5.130;2024-02-15T14:18:58;15.60;99.90
48728;DHT22;34527;45.618;5.130;2024-02-15T14:21:25;15.60;99.90
48728;DHT22;34527;45.618;5.130;2024-02-15T14:23:51;15.50;99.90
48728;DHT22;34527;45.618;5.130;2024-02-15T14:26:16;15.50;99.90
48728;DHT22;34527;45.618;5.130;2024-02-15T14:28:43;15.40;99.90
48728;DHT22;34527;45.618;5.130;2024-02-15T14:31:11;15.40;99.90
48728;DHT22;34527;45.618;5.130;2024-02-15T14:33:55;15.40;99.90
48728;DHT22;34527;45.618;5.130;2024-02-15T14:36:21;15.30;99.90
48728;DHT22;34527;45.618;5.130;2024-02-15T14:38:46;15.20;99.90
48728;DHT22;34527;45.618;5.130;2024-02-15T14:41:12;15.20;99.90
48728;DHT22;34527;45.618;5.130;2024-02-15T14:43:38;15.10;99.90
48728;DHT22;34527;45.618;5.130;2024-02-15T14:46:04;15.10;99.90
48728;DHT22;34527;45.618;5.130;2024-02-15T14:48:34;15.00;99.90
48728;DHT22;34527;45.618;5.130;2024-02-15T14:51:00;15.00;99.90
48728;DHT22;34527;45.618;5.130;2024-02-15T14:53:26;15.00;99.90
48728;DHT22;34527;45.618;5.130;2024-02-15T14:55:53;15.10;99.90
48728;DHT22;34527;45.618;5.130;2024-02-15T14:58:20;15.10;99.90
48728;DHT22;34527;45.618;5.130;2024-02-15T15:00:47;15.10;99.90
48728;DHT22;34527;45.618;5.130;2024-02-15T15:03:15;15.10;99.90
48728;DHT22;34527;45.618;5.130;2024-02-15T15:05:44;15.10;99.90
48728;DHT22;34527;45.618;5.130;2024-02-15T15:08:29;15.10;99.90
48728;DHT22;34527;45.618;5.130;2024-02-15T15:11:13;15.10;99.90
48728;DHT22;34527;45.618;5.130;2024-02-15T15:13:57;15.10;99.90
48728;DHT22;34527;45.618;5.130;2024-02-15T15:16:23;15.10;99.90
48728;DHT22;34527;45.618;5.130;2024-02-15T15:18:51;15.00;99.90
48728;DHT22;34527;45.618;5.130;2024-02-15T15:21:18;15.00;99.90
48728;DHT22;34527;45.618;5.130;2024-02-15T15:23:44;15.00;99.90
48728;DHT22;34527;45.618;5.130;2024-02-15T15:26:10;15.00;99.90
48728;DHT22;34527;45.618;5.130;2024-02-15T15:28:40;15.00;99.90
48728;DHT22;34527;45.618;5.130;2024-02-15T15:31:06;15.00;99.90
48728;DHT22;34527;45.618;5.130;2024-02-15T15:33:33;15.00;99.90
48728;DHT22;34527;45.618;5.130;2024-02-15T15:36:02;15.00;99.90
48728;DHT22;34527;45.618;5.130;2024-02-15T15:38:31;15.00;99.90
48728;DHT22;34527;45.618;5.130;2024-02-15T15:40:56;15.00;99.90
48728;DHT22;34527;45.618;5.130;2024-02-15T15:43:23;15.00;99.90
48728;DHT22;34527;45.618;5.130;2024-02-15T15:45:49;15.00;99.90
48728;DHT22;34527;45.618;5.130;2024-02-15T15:48:17;15.00;99.90
48728;DHT22;34527;45.618;5.130;2024-02-15T15:50:42;14.90;99.90
48728;DHT22;34527;45.618;5.130;2024-02-15T15:53:08;14.90;99.90